sensor_id;sensor_type;location;lat;lon;timestamp;P1;durP1;ratioP1;P2;durP2;ratioP2
3985;SDS011;2007;48.750;9.278;2023-02-21T00:02:22;4.10;;;2.47;;
3985;SDS011;2007;48.750;9.278;2023-02-21T00:05:09;3.50;;;2.50;;
3985;SDS011;2007;48.750;9.278;2023-02-21T00:07:54;4.17;;;2.73;;
3985;SDS011;2007;48.750;9.278;2023-02-21T00:10:40;2.60;;;2.40;;
3985;SDS011;2007;48.750;9.278;2023-02-21T00:13:25;2.97;;;2.00;;
3985;SDS011;2007;48.750;9.278;2023-02-21T00:16:13;3.03;;;1.70;;
3985;SDS011;2007;48.750;9.278;2023-02-21T00:18:59;5.10;;;2.03;;
3985;SDS011;2007;48.750;9.278;2023-02-21T00:21:46;3.13;;;2.40;;
3985;SDS011;2007;48.750;9.278;2023-02-21T00:24:31;3.17;;;1.83;;
3985;SDS011;2007;48.750;9.278;2023-02-21T00:27:17;2.90;;;2.40;;
3985;SDS011;2007;48.750;9.278;2023-02-21T00:30:03;2.47;;;1.97;;
3985;SDS011;2007;48.750;9.278;2023-02-21T00:32:49;3.00;;;2.70;;
3985;SDS011;2007;48.750;9.278;2023-02-21T00:35:34;3.60;;;2.50;;
3985;SDS011;2007;48.750;9.278;2023-02-21T00:38:21;2.90;;;2.43;;
3985;SDS011;2007;48.750;9.278;2023-02-21T00:41:06;7.87;;;2.40;;
3985;SDS011;2007;48.750;9.278;2023-02-21T00:43:52;5.00;;;2.67;;
3985;SDS011;2007;48.750;9.278;2023-02-21T00:46:37;3.83;;;2.20;;
3985;SDS011;2007;48.750;9.278;2023-02-21T00:49:23;3.93;;;2.10;;
3985;SDS011;2007;48.750;9.278;2023-02-21T00:52:08;3.60;;;2.47;;
3985;SDS011;2007;48.750;9.278;2023-02-21T00:54:55;2.73;;;2.30;;
3985;SDS011;2007;48.750;9.278;2023-02-21T00:57:40;3.50;;;2.33;;
3985;SDS011;2007;48.750;9.278;2023-02-21T01:00:26;3.30;;;2.20;;
3985;SDS011;2007;48.750;9.278;2023-02-21T01:03:11;2.50;;;1.67;;
3985;SDS011;2007;48.750;9.278;2023-02-21T01:05:57;3.13;;;2.03;;
3985;SDS011;2007;48.750;9.278;2023-02-21T01:08:42;3.90;;;2.60;;
3985;SDS011;2007;48.750;9.278;2023-02-21T01:11:30;3.57;;;2.77;;
3985;SDS011;2007;48.750;9.278;2023-02-21T01:14:16;3.80;;;2.93;;
3985;SDS011;2007;48.750;9.278;2023-02-21T01:17:02;2.97;;;2.37;;
3985;SDS011;2007;48.750;9.278;2023-02-21T01:19:47;3.27;;;2.10;;
3985;SDS011;2007;48.750;9.278;2023-02-21T01:22:33;3.10;;;2.33;;
3985;SDS011;2007;48.750;9.278;2023-02-21T01:25:18;3.70;;;2.43;;
3985;SDS011;2007;48.750;9.278;2023-02-21T01:28:05;3.10;;;2.07;;
3985;SDS011;2007;48.750;9.278;2023-02-21T01:30:50;3.87;;;2.67;;
3985;SDS011;2007;48.750;9.278;2023-02-21T01:33:37;3.13;;;2.13;;
3985;SDS011;2007;48.750;9.278;2023-02-21T01:36:23;4.60;;;3.17;;
3985;SDS011;2007;48.750;9.278;2023-02-21T01:39:09;4.20;;;2.40;;
3985;SDS011;2007;48.750;9.278;2023-02-21T01:41:55;2.90;;;2.20;;
3985;SDS011;2007;48.750;9.278;2023-02-21T01:44:42;3.80;;;2.30;;
3985;SDS011;2007;48.750;9.278;2023-02-21T01:47:29;3.00;;;2.00;;
3985;SDS011;2007;48.750;9.278;2023-02-21T01:50:17;2.40;;;2.10;;
3985;SDS011;2007;48.750;9.278;2023-02-21T01:53:06;5.03;;;2.70;;
3985;SDS011;2007;48.750;9.278;2023-02-21T01:55:54;3.30;;;2.50;;
3985;SDS011;2007;48.750;9.278;2023-02-21T01:58:41;3.60;;;2.40;;
3985;SDS011;2007;48.750;9.278;2023-02-21T02:01:40;4.67;;;3.10;;
3985;SDS011;2007;48.750;9.278;2023-02-21T02:04:30;4.87;;;3.47;;
3985;SDS011;2007;48.750;9.278;2023-02-21T02:07:17;3.50;;;2.67;;
3985;SDS011;2007;48.750;9.278;2023-02-21T02:10:02;3.47;;;2.77;;
3985;SDS011;2007;48.750;9.278;2023-02-21T02:12:54;2.83;;;2.17;;
3985;SDS011;2007;48.750;9.278;2023-02-21T02:15:53;3.73;;;2.33;;
3985;SDS011;2007;48.750;9.278;2023-02-21T02:24:43;3.97;;;2.30;;
3985;SDS011;2007;48.750;9.278;2023-02-21T02:33:32;4.07;;;2.70;;
3985;SDS011;2007;48.750;9.278;2023-02-21T02:36:27;2.63;;;1.87;;
3985;SDS011;2007;48.750;9.278;2023-02-21T02:39:01;3.13;;;2.43;;
3985;SDS011;2007;48.750;9.278;2023-02-21T02:41:37;4.10;;;2.57;;
3985;SDS011;2007;48.750;9.278;2023-02-21T02:44:13;3.97;;;2.63;;
3985;SDS011;2007;48.750;9.278;2023-02-21T02:46:46;2.93;;;2.50;;
3985;SDS011;2007;48.750;9.278;2023-02-21T02:49:17;3.10;;;2.40;;
3985;SDS011;2007;48.750;9.278;2023-02-21T02:51:49;3.17;;;2.30;;
3985;SDS011;2007;48.750;9.278;2023-02-21T02:54:17;3.30;;;2.73;;
3985;SDS011;2007;48.750;9.278;2023-02-21T02:56:46;2.47;;;1.90;;
3985;SDS011;2007;48.750;9.278;2023-02-21T02:59:15;2.83;;;2.33;;
3985;SDS011;2007;48.750;9.278;2023-02-21T03:02:02;2.90;;;2.60;;
3985;SDS011;2007;48.750;9.278;2023-02-21T03:04:50;4.10;;;2.90;;
3985;SDS011;2007;48.750;9.278;2023-02-21T03:07:33;3.10;;;2.30;;
3985;SDS011;2007;48.750;9.278;2023-02-21T03:10:13;3.97;;;2.67;;
3985;SDS011;2007;48.750;9.278;2023-02-21T03:12:48;3.70;;;2.80;;
3985;SDS011;2007;48.750;9.278;2023-02-21T03:15:23;3.03;;;2.10;;
3985;SDS011;2007;48.750;9.278;2023-02-21T03:17:55;3.40;;;2.83;;
3985;SDS011;2007;48.750;9.278;2023-02-21T03:20:27;6.70;;;2.97;;
3985;SDS011;2007;48.750;9.278;2023-02-21T03:22:59;3.73;;;2.80;;
3985;SDS011;2007;48.750;9.278;2023-02-21T03:25:30;3.33;;;2.40;;
3985;SDS011;2007;48.750;9.278;2023-02-21T03:28:01;3.37;;;2.40;;
3985;SDS011;2007;48.750;9.278;2023-02-21T03:30:29;3.43;;;2.70;;
3985;SDS011;2007;48.750;9.278;2023-02-21T03:32:58;2.90;;;2.23;;
3985;SDS011;2007;48.750;9.278;2023-02-21T03:35:27;4.43;;;3.03;;
3985;SDS011;2007;48.750;9.278;2023-02-21T03:37:56;2.83;;;2.33;;
3985;SDS011;2007;48.750;9.278;2023-02-21T03:40:27;3.60;;;2.90;;
3985;SDS011;2007;48.750;9.278;2023-02-21T03:42:58;4.97;;;2.63;;
3985;SDS011;2007;48.750;9.278;2023-02-21T03:45:27;3.77;;;2.77;;
3985;SDS011;2007;48.750;9.278;2023-02-21T03:47:55;4.97;;;2.97;;
3985;SDS011;2007;48.750;9.278;2023-02-21T03:50:22;4.27;;;2.87;;
3985;SDS011;2007;48.750;9.278;2023-02-21T03:52:50;2.60;;;2.40;;
3985;SDS011;2007;48.750;9.278;2023-02-21T03:55:19;3.20;;;2.80;;
3985;SDS011;2007;48.750;9.278;2023-02-21T03:57:48;3.07;;;2.27;;
3985;SDS011;2007;48.750;9.278;2023-02-21T04:00:16;3.70;;;3.03;;
3985;SDS011;2007;48.750;9.278;2023-02-21T04:02:44;3.30;;;2.53;;
3985;SDS011;2007;48.750;9.278;2023-02-21T04:05:12;3.23;;;2.40;;
3985;SDS011;2007;48.750;9.278;2023-02-21T04:07:40;3.33;;;2.90;;
3985;SDS011;2007;48.750;9.278;2023-02-21T04:10:08;3.27;;;2.47;;
3985;SDS011;2007;48.750;9.278;2023-02-21T04:12:36;3.70;;;2.60;;
3985;SDS011;2007;48.750;9.278;2023-02-21T04:15:06;3.17;;;2.67;;
3985;SDS011;2007;48.750;9.278;2023-02-21T04:17:34;4.10;;;2.50;;
3985;SDS011;2007;48.750;9.278;2023-02-21T04:20:02;2.50;;;2.23;;
3985;SDS011;2007;48.750;9.278;2023-02-21T04:22:30;4.00;;;2.40;;
3985;SDS011;2007;48.750;9.278;2023-02-21T04:24:58;4.00;;;2.50;;
3985;SDS011;2007;48.750;9.278;2023-02-21T04:27:26;3.70;;;2.40;;
3985;SDS011;2007;48.750;9.278;2023-02-21T04:29:54;3.20;;;2.53;;
3985;SDS011;2007;48.750;9.278;2023-02-21T04:32:23;3.23;;;2.13;;
3985;SDS011;2007;48.750;9.278;2023-02-21T04:34:52;3.73;;;2.80;;
3985;SDS011;2007;48.750;9.278;2023-02-21T04:37:20;2.87;;;2.20;;
3985;SDS011;2007;48.750;9.278;2023-02-21T04:39:48;2.60;;;2.27;;
3985;SDS011;2007;48.750;9.278;2023-02-21T04:42:16;3.53;;;2.60;;
3985;SDS011;2007;48.750;9.278;2023-02-21T04:44:44;5.93;;;2.50;;
3985;SDS011;2007;48.750;9.278;2023-02-21T04:47:26;3.03;;;2.63;;
3985;SDS011;2007;48.750;9.278;2023-02-21T04:49:54;3.53;;;2.70;;
3985;SDS011;2007;48.750;9.278;2023-02-21T04:52:22;4.10;;;2.37;;
3985;SDS011;2007;48.750;9.278;2023-02-21T04:54:50;3.53;;;2.57;;
3985;SDS011;2007;48.750;9.278;2023-02-21T04:57:18;4.03;;;2.80;;
3985;SDS011;2007;48.750;9.278;2023-02-21T04:59:46;4.47;;;3.10;;
3985;SDS011;2007;48.750;9.278;2023-02-21T05:02:14;3.23;;;2.43;;
3985;SDS011;2007;48.750;9.278;2023-02-21T05:04:43;4.40;;;2.80;;
3985;SDS011;2007;48.750;9.278;2023-02-21T05:07:11;3.80;;;2.77;;
3985;SDS011;2007;48.750;9.278;2023-02-21T05:09:39;3.10;;;2.67;;
3985;SDS011;2007;48.750;9.278;2023-02-21T05:12:07;4.73;;;2.77;;
3985;SDS011;2007;48.750;9.278;2023-02-21T05:14:37;3.50;;;3.13;;
3985;SDS011;2007;48.750;9.278;2023-02-21T05:17:05;3.60;;;2.60;;
3985;SDS011;2007;48.750;9.278;2023-02-21T05:19:34;4.17;;;3.00;;
3985;SDS011;2007;48.750;9.278;2023-02-21T05:22:03;3.70;;;2.97;;
3985;SDS011;2007;48.750;9.278;2023-02-21T05:24:32;3.90;;;2.87;;
3985;SDS011;2007;48.750;9.278;2023-02-21T05:27:01;3.60;;;2.53;;
3985;SDS011;2007;48.750;9.278;2023-02-21T05:29:29;2.70;;;2.20;;
3985;SDS011;2007;48.750;9.278;2023-02-21T05:31:57;2.90;;;2.43;;
3985;SDS011;2007;48.750;9.278;2023-02-21T05:34:25;3.67;;;3.17;;
3985;SDS011;2007;48.750;9.278;2023-02-21T05:36:52;3.13;;;2.83;;
3985;SDS011;2007;48.750;9.278;2023-02-21T05:39:22;3.43;;;2.93;;
3985;SDS011;2007;48.750;9.278;2023-02-21T05:41:50;3.20;;;2.53;;
3985;SDS011;2007;48.750;9.278;2023-02-21T05:44:18;3.27;;;2.50;;
3985;SDS011;2007;48.750;9.278;2023-02-21T05:46:46;4.60;;;3.03;;
3985;SDS011;2007;48.750;9.278;2023-02-21T05:49:14;3.43;;;2.90;;
3985;SDS011;2007;48.750;9.278;2023-02-21T05:51:42;4.27;;;2.50;;
3985;SDS011;2007;48.750;9.278;2023-02-21T05:54:12;3.33;;;2.80;;
3985;SDS011;2007;48.750;9.278;2023-02-21T05:56:44;4.17;;;2.47;;
3985;SDS011;2007;48.750;9.278;2023-02-21T05:59:14;4.50;;;2.87;;
3985;SDS011;2007;48.750;9.278;2023-02-21T06:01:43;4.17;;;2.93;;
3985;SDS011;2007;48.750;9.278;2023-02-21T06:04:11;3.07;;;2.77;;
3985;SDS011;2007;48.750;9.278;2023-02-21T06:06:40;3.13;;;2.60;;
3985;SDS011;2007;48.750;9.278;2023-02-21T06:09:08;4.70;;;3.60;;
3985;SDS011;2007;48.750;9.278;2023-02-21T06:11:37;6.13;;;2.63;;
3985;SDS011;2007;48.750;9.278;2023-02-21T06:14:07;7.50;;;2.90;;
3985;SDS011;2007;48.750;9.278;2023-02-21T06:16:40;3.47;;;2.77;;
3985;SDS011;2007;48.750;9.278;2023-02-21T06:19:08;3.77;;;2.47;;
3985;SDS011;2007;48.750;9.278;2023-02-21T06:21:38;3.70;;;2.97;;
3985;SDS011;2007;48.750;9.278;2023-02-21T06:24:07;2.47;;;2.03;;
3985;SDS011;2007;48.750;9.278;2023-02-21T06:26:35;5.20;;;2.60;;
3985;SDS011;2007;48.750;9.278;2023-02-21T06:29:03;3.37;;;2.90;;
3985;SDS011;2007;48.750;9.278;2023-02-21T06:31:33;3.33;;;2.53;;
3985;SDS011;2007;48.750;9.278;2023-02-21T06:34:01;2.80;;;2.43;;
3985;SDS011;2007;48.750;9.278;2023-02-21T06:36:30;4.13;;;3.10;;
3985;SDS011;2007;48.750;9.278;2023-02-21T06:38:57;2.87;;;2.57;;
3985;SDS011;2007;48.750;9.278;2023-02-21T06:41:26;4.03;;;2.70;;
3985;SDS011;2007;48.750;9.278;2023-02-21T06:43:56;4.23;;;2.73;;
3985;SDS011;2007;48.750;9.278;2023-02-21T06:46:25;3.80;;;2.87;;
3985;SDS011;2007;48.750;9.278;2023-02-21T06:48:56;2.90;;;2.70;;
3985;SDS011;2007;48.750;9.278;2023-02-21T06:51:24;3.43;;;2.70;;
3985;SDS011;2007;48.750;9.278;2023-02-21T06:53:55;3.30;;;2.23;;
3985;SDS011;2007;48.750;9.278;2023-02-21T06:56:23;4.70;;;3.27;;
3985;SDS011;2007;48.750;9.278;2023-02-21T06:58:52;3.87;;;3.07;;
3985;SDS011;2007;48.750;9.278;2023-02-21T07:01:20;3.80;;;3.07;;
3985;SDS011;2007;48.750;9.278;2023-02-21T07:03:49;3.90;;;2.73;;
3985;SDS011;2007;48.750;9.278;2023-02-21T07:06:18;3.03;;;2.60;;
3985;SDS011;2007;48.750;9.278;2023-02-21T07:08:46;4.23;;;3.40;;
3985;SDS011;2007;48.750;9.278;2023-02-21T07:11:15;3.27;;;2.60;;
3985;SDS011;2007;48.750;9.278;2023-02-21T07:13:46;2.93;;;2.50;;
3985;SDS011;2007;48.750;9.278;2023-02-21T07:16:16;3.50;;;2.80;;
3985;SDS011;2007;48.750;9.278;2023-02-21T07:18:44;3.03;;;2.63;;
3985;SDS011;2007;48.750;9.278;2023-02-21T07:21:13;3.30;;;2.80;;
3985;SDS011;2007;48.750;9.278;2023-02-21T07:23:43;4.57;;;2.83;;
3985;SDS011;2007;48.750;9.278;2023-02-21T07:26:13;2.70;;;2.40;;
3985;SDS011;2007;48.750;9.278;2023-02-21T07:28:41;3.03;;;2.43;;
3985;SDS011;2007;48.750;9.278;2023-02-21T07:31:09;3.90;;;2.80;;
3985;SDS011;2007;48.750;9.278;2023-02-21T07:33:37;3.20;;;2.60;;
3985;SDS011;2007;48.750;9.278;2023-02-21T07:36:05;4.00;;;2.70;;
3985;SDS011;2007;48.750;9.278;2023-02-21T07:38:34;3.37;;;3.07;;
3985;SDS011;2007;48.750;9.278;2023-02-21T07:41:03;3.20;;;2.80;;
3985;SDS011;2007;48.750;9.278;2023-02-21T07:43:31;3.57;;;3.27;;
3985;SDS011;2007;48.750;9.278;2023-02-21T07:45:59;3.20;;;2.60;;
3985;SDS011;2007;48.750;9.278;2023-02-21T07:48:27;2.40;;;2.20;;
3985;SDS011;2007;48.750;9.278;2023-02-21T07:50:55;3.30;;;2.80;;
3985;SDS011;2007;48.750;9.278;2023-02-21T07:53:23;3.70;;;2.60;;
3985;SDS011;2007;48.750;9.278;2023-02-21T07:55:51;3.63;;;2.80;;
3985;SDS011;2007;48.750;9.278;2023-02-21T07:58:20;3.53;;;2.60;;
3985;SDS011;2007;48.750;9.278;2023-02-21T08:00:48;3.90;;;2.90;;
3985;SDS011;2007;48.750;9.278;2023-02-21T08:03:16;4.07;;;2.80;;
3985;SDS011;2007;48.750;9.278;2023-02-21T08:05:44;2.77;;;2.57;;
3985;SDS011;2007;48.750;9.278;2023-02-21T08:08:13;3.63;;;2.63;;
3985;SDS011;2007;48.750;9.278;2023-02-21T08:10:41;3.60;;;2.70;;
3985;SDS011;2007;48.750;9.278;2023-02-21T08:13:09;3.60;;;3.27;;
3985;SDS011;2007;48.750;9.278;2023-02-21T08:15:38;6.23;;;3.03;;
3985;SDS011;2007;48.750;9.278;2023-02-21T08:18:09;3.50;;;2.70;;
3985;SDS011;2007;48.750;9.278;2023-02-21T08:20:43;4.10;;;2.40;;
3985;SDS011;2007;48.750;9.278;2023-02-21T08:23:11;3.37;;;2.73;;
3985;SDS011;2007;48.750;9.278;2023-02-21T08:25:39;2.93;;;2.50;;
3985;SDS011;2007;48.750;9.278;2023-02-21T08:28:07;4.23;;;2.87;;
3985;SDS011;2007;48.750;9.278;2023-02-21T08:30:35;3.30;;;3.00;;
3985;SDS011;2007;48.750;9.278;2023-02-21T08:33:04;3.20;;;2.60;;
3985;SDS011;2007;48.750;9.278;2023-02-21T08:35:32;3.03;;;2.57;;
3985;SDS011;2007;48.750;9.278;2023-02-21T08:38:00;2.60;;;2.20;;
3985;SDS011;2007;48.750;9.278;2023-02-21T08:40:29;3.60;;;2.43;;
3985;SDS011;2007;48.750;9.278;2023-02-21T08:42:58;2.60;;;2.40;;
3985;SDS011;2007;48.750;9.278;2023-02-21T08:45:27;3.50;;;2.70;;
3985;SDS011;2007;48.750;9.278;2023-02-21T08:47:56;4.00;;;3.07;;
3985;SDS011;2007;48.750;9.278;2023-02-21T08:50:26;3.53;;;2.33;;
3985;SDS011;2007;48.750;9.278;2023-02-21T08:52:55;2.97;;;2.67;;
3985;SDS011;2007;48.750;9.278;2023-02-21T08:55:23;3.20;;;2.90;;
3985;SDS011;2007;48.750;9.278;2023-02-21T08:57:52;3.30;;;2.67;;
3985;SDS011;2007;48.750;9.278;2023-02-21T09:00:21;3.40;;;3.10;;
3985;SDS011;2007;48.750;9.278;2023-02-21T09:02:53;3.50;;;3.10;;
3985;SDS011;2007;48.750;9.278;2023-02-21T09:05:23;3.60;;;2.60;;
3985;SDS011;2007;48.750;9.278;2023-02-21T09:07:54;3.93;;;2.90;;
3985;SDS011;2007;48.750;9.278;2023-02-21T09:10:24;3.90;;;3.47;;
3985;SDS011;2007;48.750;9.278;2023-02-21T09:12:53;3.50;;;2.77;;
3985;SDS011;2007;48.750;9.278;2023-02-21T09:15:21;4.33;;;2.87;;
3985;SDS011;2007;48.750;9.278;2023-02-21T09:17:49;3.00;;;2.70;;
3985;SDS011;2007;48.750;9.278;2023-02-21T09:20:20;2.73;;;2.27;;
3985;SDS011;2007;48.750;9.278;2023-02-21T09:22:50;2.90;;;2.60;;
3985;SDS011;2007;48.750;9.278;2023-02-21T09:25:20;3.60;;;2.80;;
3985;SDS011;2007;48.750;9.278;2023-02-21T09:27:50;3.90;;;2.90;;
3985;SDS011;2007;48.750;9.278;2023-02-21T09:30:20;3.43;;;2.67;;
3985;SDS011;2007;48.750;9.278;2023-02-21T09:32:52;4.00;;;2.60;;
3985;SDS011;2007;48.750;9.278;2023-02-21T09:35:20;3.50;;;3.03;;
3985;SDS011;2007;48.750;9.278;2023-02-21T09:37:49;2.83;;;2.37;;
3985;SDS011;2007;48.750;9.278;2023-02-21T09:40:20;3.30;;;2.60;;
3985;SDS011;2007;48.750;9.278;2023-02-21T09:42:56;3.00;;;2.53;;
3985;SDS011;2007;48.750;9.278;2023-02-21T09:45:26;2.90;;;2.57;;
3985;SDS011;2007;48.750;9.278;2023-02-21T09:47:58;3.53;;;3.10;;
3985;SDS011;2007;48.750;9.278;2023-02-21T09:50:28;3.30;;;2.97;;
3985;SDS011;2007;48.750;9.278;2023-02-21T09:53:01;3.80;;;3.37;;
3985;SDS011;2007;48.750;9.278;2023-02-21T09:55:32;5.40;;;3.03;;
3985;SDS011;2007;48.750;9.278;2023-02-21T09:58:02;3.10;;;2.60;;
3985;SDS011;2007;48.750;9.278;2023-02-21T10:00:33;5.90;;;2.30;;
3985;SDS011;2007;48.750;9.278;2023-02-21T10:03:08;3.47;;;3.17;;
3985;SDS011;2007;48.750;9.278;2023-02-21T10:05:47;3.27;;;2.60;;
3985;SDS011;2007;48.750;9.278;2023-02-21T10:08:21;4.30;;;3.20;;
3985;SDS011;2007;48.750;9.278;2023-02-21T10:11:05;4.60;;;2.90;;
3985;SDS011;2007;48.750;9.278;2023-02-21T10:13:48;3.40;;;2.13;;
3985;SDS011;2007;48.750;9.278;2023-02-21T10:16:23;5.30;;;2.87;;
3985;SDS011;2007;48.750;9.278;2023-02-21T10:18:58;3.40;;;2.87;;
3985;SDS011;2007;48.750;9.278;2023-02-21T10:21:31;3.60;;;3.00;;
3985;SDS011;2007;48.750;9.278;2023-02-21T10:24:02;3.00;;;2.70;;
3985;SDS011;2007;48.750;9.278;2023-02-21T10:26:38;4.03;;;3.00;;
3985;SDS011;2007;48.750;9.278;2023-02-21T10:29:14;3.13;;;2.70;;
3985;SDS011;2007;48.750;9.278;2023-02-21T10:31:47;2.97;;;2.70;;
3985;SDS011;2007;48.750;9.278;2023-02-21T10:34:21;2.93;;;2.67;;
3985;SDS011;2007;48.750;9.278;2023-02-21T10:36:52;3.40;;;2.40;;
3985;SDS011;2007;48.750;9.278;2023-02-21T10:39:23;4.40;;;3.47;;
3985;SDS011;2007;48.750;9.278;2023-02-21T10:41:57;2.77;;;2.20;;
3985;SDS011;2007;48.750;9.278;2023-02-21T10:44:28;3.93;;;2.67;;
3985;SDS011;2007;48.750;9.278;2023-02-21T10:47:00;4.50;;;2.70;;
3985;SDS011;2007;48.750;9.278;2023-02-21T10:49:32;3.43;;;2.97;;
3985;SDS011;2007;48.750;9.278;2023-02-21T10:52:07;3.70;;;3.03;;
3985;SDS011;2007;48.750;9.278;2023-02-21T10:54:37;2.93;;;2.40;;
3985;SDS011;2007;48.750;9.278;2023-02-21T10:57:09;3.27;;;2.50;;
3985;SDS011;2007;48.750;9.278;2023-02-21T10:59:40;2.60;;;2.23;;
3985;SDS011;2007;48.750;9.278;2023-02-21T11:02:27;2.33;;;2.10;;
3985;SDS011;2007;48.750;9.278;2023-02-21T11:05:08;3.17;;;2.70;;
3985;SDS011;2007;48.750;9.278;2023-02-21T11:07:39;2.80;;;2.50;;
3985;SDS011;2007;48.750;9.278;2023-02-21T11:10:25;3.33;;;2.53;;
3985;SDS011;2007;48.750;9.278;2023-02-21T11:13:09;3.20;;;2.20;;
3985;SDS011;2007;48.750;9.278;2023-02-21T11:15:41;3.20;;;2.43;;
3985;SDS011;2007;48.750;9.278;2023-02-21T11:18:16;3.20;;;2.67;;
3985;SDS011;2007;48.750;9.278;2023-02-21T11:20:48;4.13;;;2.50;;
3985;SDS011;2007;48.750;9.278;2023-02-21T11:23:18;3.37;;;2.20;;
3985;SDS011;2007;48.750;9.278;2023-02-21T11:25:49;4.40;;;2.53;;
3985;SDS011;2007;48.750;9.278;2023-02-21T11:28:26;3.40;;;2.80;;
3985;SDS011;2007;48.750;9.278;2023-02-21T11:31:05;3.37;;;2.83;;
3985;SDS011;2007;48.750;9.278;2023-02-21T11:33:40;2.60;;;2.40;;
3985;SDS011;2007;48.750;9.278;2023-02-21T11:36:16;2.87;;;2.57;;
3985;SDS011;2007;48.750;9.278;2023-02-21T11:38:58;3.13;;;2.83;;
3985;SDS011;2007;48.750;9.278;2023-02-21T11:41:28;3.90;;;2.93;;
3985;SDS011;2007;48.750;9.278;2023-02-21T11:44:17;3.47;;;2.47;;
3985;SDS011;2007;48.750;9.278;2023-02-21T11:46:51;3.30;;;2.53;;
3985;SDS011;2007;48.750;9.278;2023-02-21T11:49:31;3.30;;;2.47;;
3985;SDS011;2007;48.750;9.278;2023-02-21T11:52:04;3.50;;;2.87;;
3985;SDS011;2007;48.750;9.278;2023-02-21T11:54:36;6.33;;;2.80;;
3985;SDS011;2007;48.750;9.278;2023-02-21T11:57:08;2.50;;;2.30;;
3985;SDS011;2007;48.750;9.278;2023-02-21T11:59:45;4.13;;;3.00;;
3985;SDS011;2007;48.750;9.278;2023-02-21T12:02:24;3.47;;;1.93;;
3985;SDS011;2007;48.750;9.278;2023-02-21T12:05:15;2.97;;;2.60;;
3985;SDS011;2007;48.750;9.278;2023-02-21T12:07:57;2.70;;;2.13;;
3985;SDS011;2007;48.750;9.278;2023-02-21T12:10:50;2.67;;;2.17;;
3985;SDS011;2007;48.750;9.278;2023-02-21T12:13:24;3.50;;;2.30;;
3985;SDS011;2007;48.750;9.278;2023-02-21T12:16:01;3.00;;;2.33;;
3985;SDS011;2007;48.750;9.278;2023-02-21T12:18:44;2.90;;;2.60;;
3985;SDS011;2007;48.750;9.278;2023-02-21T12:21:31;2.37;;;2.07;;
3985;SDS011;2007;48.750;9.278;2023-02-21T12:24:11;3.43;;;2.10;;
3985;SDS011;2007;48.750;9.278;2023-02-21T12:26:53;2.50;;;2.30;;
3985;SDS011;2007;48.750;9.278;2023-02-21T12:29:29;2.40;;;2.00;;
3985;SDS011;2007;48.750;9.278;2023-02-21T12:32:18;2.50;;;2.17;;
3985;SDS011;2007;48.750;9.278;2023-02-21T12:35:00;3.13;;;2.30;;
3985;SDS011;2007;48.750;9.278;2023-02-21T12:37:34;2.63;;;1.83;;
3985;SDS011;2007;48.750;9.278;2023-02-21T12:40:14;2.20;;;2.00;;
3985;SDS011;2007;48.750;9.278;2023-02-21T12:42:54;2.37;;;2.00;;
3985;SDS011;2007;48.750;9.278;2023-02-21T12:48:26;2.80;;;2.30;;
3985;SDS011;2007;48.750;9.278;2023-02-21T12:51:00;2.90;;;2.40;;
3985;SDS011;2007;48.750;9.278;2023-02-21T12:53:34;2.77;;;2.57;;
3985;SDS011;2007;48.750;9.278;2023-02-21T12:56:07;3.07;;;2.60;;
3985;SDS011;2007;48.750;9.278;2023-02-21T12:58:39;3.27;;;2.50;;
3985;SDS011;2007;48.750;9.278;2023-02-21T13:01:14;2.33;;;1.90;;
3985;SDS011;2007;48.750;9.278;2023-02-21T13:03:52;2.90;;;2.60;;
3985;SDS011;2007;48.750;9.278;2023-02-21T13:06:27;2.87;;;2.13;;
3985;SDS011;2007;48.750;9.278;2023-02-21T13:08:59;2.80;;;2.33;;
3985;SDS011;2007;48.750;9.278;2023-02-21T13:11:36;2.17;;;1.60;;
3985;SDS011;2007;48.750;9.278;2023-02-21T13:14:09;2.90;;;2.57;;
3985;SDS011;2007;48.750;9.278;2023-02-21T13:16:40;2.53;;;2.30;;
3985;SDS011;2007;48.750;9.278;2023-02-21T13:19:10;2.83;;;2.40;;
3985;SDS011;2007;48.750;9.278;2023-02-21T13:21:46;2.30;;;1.60;;
3985;SDS011;2007;48.750;9.278;2023-02-21T13:24:38;3.33;;;2.10;;
3985;SDS011;2007;48.750;9.278;2023-02-21T13:27:38;2.40;;;1.93;;
3985;SDS011;2007;48.750;9.278;2023-02-21T13:30:15;3.33;;;1.57;;
3985;SDS011;2007;48.750;9.278;2023-02-21T13:32:51;3.40;;;2.63;;
3985;SDS011;2007;48.750;9.278;2023-02-21T13:35:25;2.73;;;1.97;;
3985;SDS011;2007;48.750;9.278;2023-02-21T13:37:57;2.30;;;1.73;;
3985;SDS011;2007;48.750;9.278;2023-02-21T13:40:31;2.33;;;1.70;;
3985;SDS011;2007;48.750;9.278;2023-02-21T13:43:06;3.10;;;2.50;;
3985;SDS011;2007;48.750;9.278;2023-02-21T13:45:39;2.80;;;2.00;;
3985;SDS011;2007;48.750;9.278;2023-02-21T13:50:56;2.50;;;1.83;;
3985;SDS011;2007;48.750;9.278;2023-02-21T13:53:26;2.20;;;1.80;;
3985;SDS011;2007;48.750;9.278;2023-02-21T13:56:13;2.53;;;1.87;;
3985;SDS011;2007;48.750;9.278;2023-02-21T13:58:43;2.73;;;2.07;;
3985;SDS011;2007;48.750;9.278;2023-02-21T14:01:22;2.47;;;1.70;;
3985;SDS011;2007;48.750;9.278;2023-02-21T14:10:37;2.43;;;2.10;;
3985;SDS011;2007;48.750;9.278;2023-02-21T14:13:16;2.40;;;1.97;;
3985;SDS011;2007;48.750;9.278;2023-02-21T14:15:48;2.00;;;1.60;;
3985;SDS011;2007;48.750;9.278;2023-02-21T14:18:24;2.47;;;1.83;;
3985;SDS011;2007;48.750;9.278;2023-02-21T14:20:54;2.47;;;1.93;;
3985;SDS011;2007;48.750;9.278;2023-02-21T14:23:35;1.93;;;1.60;;
3985;SDS011;2007;48.750;9.278;2023-02-21T14:26:31;2.53;;;1.80;;
3985;SDS011;2007;48.750;9.278;2023-02-21T14:29:30;2.73;;;2.17;;
3985;SDS011;2007;48.750;9.278;2023-02-21T14:32:22;2.73;;;1.83;;
3985;SDS011;2007;48.750;9.278;2023-02-21T14:34:53;2.20;;;1.80;;
3985;SDS011;2007;48.750;9.278;2023-02-21T14:37:24;3.30;;;1.90;;
3985;SDS011;2007;48.750;9.278;2023-02-21T14:40:11;2.37;;;2.07;;
3985;SDS011;2007;48.750;9.278;2023-02-21T14:42:53;3.27;;;2.07;;
3985;SDS011;2007;48.750;9.278;2023-02-21T14:45:48;2.43;;;1.80;;
3985;SDS011;2007;48.750;9.278;2023-02-21T14:48:36;2.70;;;1.70;;
3985;SDS011;2007;48.750;9.278;2023-02-21T14:51:27;2.43;;;2.20;;
3985;SDS011;2007;48.750;9.278;2023-02-21T14:57:39;2.40;;;1.53;;
3985;SDS011;2007;48.750;9.278;2023-02-21T15:00:19;2.40;;;1.80;;
3985;SDS011;2007;48.750;9.278;2023-02-21T15:02:55;2.00;;;1.50;;
3985;SDS011;2007;48.750;9.278;2023-02-21T15:05:33;2.03;;;1.53;;
3985;SDS011;2007;48.750;9.278;2023-02-21T15:08:07;2.20;;;1.90;;
3985;SDS011;2007;48.750;9.278;2023-02-21T15:10:41;2.20;;;1.87;;
3985;SDS011;2007;48.750;9.278;2023-02-21T15:13:22;2.13;;;1.60;;
3985;SDS011;2007;48.750;9.278;2023-02-21T15:15:55;2.40;;;1.53;;
3985;SDS011;2007;48.750;9.278;2023-02-21T15:18:25;2.77;;;1.90;;
3985;SDS011;2007;48.750;9.278;2023-02-21T15:21:02;2.30;;;1.60;;
3985;SDS011;2007;48.750;9.278;2023-02-21T15:23:32;2.13;;;1.47;;
3985;SDS011;2007;48.750;9.278;2023-02-21T15:26:11;2.50;;;1.70;;
3985;SDS011;2007;48.750;9.278;2023-02-21T15:28:45;2.20;;;1.63;;
3985;SDS011;2007;48.750;9.278;2023-02-21T15:31:13;2.43;;;1.50;;
3985;SDS011;2007;48.750;9.278;2023-02-21T15:33:43;2.30;;;1.80;;
3985;SDS011;2007;48.750;9.278;2023-02-21T15:36:14;1.90;;;1.40;;
3985;SDS011;2007;48.750;9.278;2023-02-21T15:38:44;2.50;;;1.60;;
3985;SDS011;2007;48.750;9.278;2023-02-21T15:41:15;2.13;;;1.60;;
3985;SDS011;2007;48.750;9.278;2023-02-21T15:43:54;2.10;;;1.63;;
3985;SDS011;2007;48.750;9.278;2023-02-21T15:46:27;1.73;;;1.43;;
3985;SDS011;2007;48.750;9.278;2023-02-21T15:48:59;2.00;;;1.60;;
3985;SDS011;2007;48.750;9.278;2023-02-21T15:51:30;2.30;;;1.60;;
3985;SDS011;2007;48.750;9.278;2023-02-21T15:54:08;2.43;;;1.70;;
3985;SDS011;2007;48.750;9.278;2023-02-21T15:56:47;2.30;;;1.80;;
3985;SDS011;2007;48.750;9.278;2023-02-21T15:59:30;2.53;;;1.60;;
3985;SDS011;2007;48.750;9.278;2023-02-21T16:02:05;2.17;;;1.80;;
3985;SDS011;2007;48.750;9.278;2023-02-21T16:04:42;2.30;;;1.70;;
3985;SDS011;2007;48.750;9.278;2023-02-21T16:07:15;1.87;;;1.50;;
3985;SDS011;2007;48.750;9.278;2023-02-21T16:09:46;1.83;;;1.43;;
3985;SDS011;2007;48.750;9.278;2023-02-21T16:12:27;2.50;;;1.90;;
3985;SDS011;2007;48.750;9.278;2023-02-21T16:14:58;2.10;;;1.40;;
3985;SDS011;2007;48.750;9.278;2023-02-21T16:17:29;2.00;;;1.30;;
3985;SDS011;2007;48.750;9.278;2023-02-21T16:20:00;1.97;;;1.47;;
3985;SDS011;2007;48.750;9.278;2023-02-21T16:22:39;1.73;;;1.33;;
3985;SDS011;2007;48.750;9.278;2023-02-21T16:25:31;2.20;;;1.70;;
3985;SDS011;2007;48.750;9.278;2023-02-21T16:27:59;2.10;;;1.43;;
3985;SDS011;2007;48.750;9.278;2023-02-21T16:30:30;1.77;;;1.23;;